Ana Sayfa
METAR-TAF:

METAR-TAF

Havaalanları :

Cahokia / St. Louis, Illinois, Amerika Birleşik Devletleri

Enlem: 38-34-15N, Boylam: 090-09-22W, yükseklik: 126 m

Güncel hava durumu gözlemi

Rapor saat 21:53 UTC de 46 dakika önce yapıldı.
Rüzgar güneybatıdan 6 kt
Sıcaklık 33°C
Nem 39%
Basınç 1023 hPa
Görüş mesafesi: 16.1 km
Açık gökyüzü

METAR: KCPS 202153Z AUTO 23006KT 10SM CLR 33/17 A3022 RMK AO2 SLP230 T03330167 PNO

Saat: 17:39 (22:39 UTC)

Tahmin

Rapor saat 17:20 UTC de 5 saat ve 19 dakika önce yapıldı.
Ayın 20'si saat 18 UTC'den ayın 21'si saat 18 UTC'ye kadar geçerli Tahmin
Rüzgar güney/güneybatıdan 6 kt
Görüş mesafesi: 10 km
6000 ft yükseklikte parçalı bulutlu
Ayın 21'si saat 0100 UTC'den
Rüzgar değişken yönden 3 kt
Görüş mesafesi: 10 km
20000 ft yükseklikte az bulutlu

TAF: KCPS 201720Z 2018/2118 20006KT P6SM SCT060 FM210100 VRB03KT P6SM FEW200

4.000'den fazla havaalanı için hava durumu gözlemleri ve tahminleri (METAR ve TAF raporları).

Kullanılabilir istasyonlar harita üzerinde sarı ve kırmızı noktalarla gösterilir.

İstasyonun adını görmek için fareyi noktanın üzerinde gezdirin.

Sonrasında hava gözlem ve tahminlerini görmek için tıklayın.

Haritayı değiştirmek için: yaklaştırmak için siyah artı işaretli yeşil düğmeye ve uzaklaştırmak için de eksi işaretli düğmeye hızla tıklayın; bitişik haritalar için yeşil okları kullanın.


METAR-TAF: